Current Weather

Annapolis United States Naval

Annapolis United States Naval, Maryland (KNAK)

Report from: Tuesday, July 16, 2024 2:54 PM UTC
Current time: Tuesday, July 16, 2024 3:58 PM UTC

Nearby weather – Weather history – Daily summaries
Weather forecast

Temperature30.0°C (86.0°F)
Heat index37.6°C (99.7°F)
Dew point26.1°C (79.0°F)
Winds 11 kts (5.7 m/s, 12.7 mph) East-Southeast (120°)
Visibility10 mi. (16.1 km)
Clouds Sky clear
Altimeter29.85 in.Hg (1011 mB)
Relative humidity80 %
Density altitude2,241 ft. (683 m)
Sea-level pressure101.1 kPa (1011 mB, 29.86 in.Hg)
Remarks Fully automated report
Automated weather observing station with precipitation discriminator
Pressure falling, then rising
Flight conditions Visual Meteorological Conditions
Raw dataKNAK 161454Z AUTO 12011KT 10SM CLR 30/26 A2985 RMK AO2 SLP111 T03000261 55004
An error has occurred. This application may no longer respond until reloaded. Reload 🗙